Time;durP1;ratioP1;P1;durP2;ratioP2;P2;SDS_P1;SDS_P2;PMS_P1;PMS_P2;Temp;Humidity;BMP_temperature;BMP_pressure;BME280_temperature;BME280_humidity;BME280_pressure;Samples;Min_cycle;Max_cycle;Signal;HPM_P1;HPM_P2
2022/08/04 00:00:18;;;;;;;7.10;2.50;;;;;;;22.92;66.53;100672.98;107129;1284;74765;-83
2022/08/04 00:03:06;;;;;;;8.20;2.70;;;;;;;22.90;66.63;100673.82;107007;1282;63095;-82
2022/08/04 00:05:51;;;;;;;6.40;2.10;;;;;;;22.87;66.86;100672.68;107051;1282;60284;-82
2022/08/04 00:08:20;;;;;;;7.40;2.40;;;;;;;22.84;66.90;100673.63;107014;1282;75962;-82
2022/08/04 00:10:52;;;;;;;7.10;2.50;;;;;;;22.80;67.12;100675.96;107244;1282;73236;-82
2022/08/04 00:13:24;;;;;;;6.40;3.00;;;;;;;22.77;67.30;100678.53;107204;1283;73446;-82
2022/08/04 00:16:09;;;;;;;4.90;2.40;;;;;;;22.74;67.30;100678.29;106996;1282;61977;-82
2022/08/04 00:18:40;;;;;;;6.50;2.30;;;;;;;22.71;67.45;100677.23;107095;1284;61490;-82
2022/08/04 00:21:11;;;;;;;6.60;2.30;;;;;;;22.67;67.69;100677.96;106713;1283;74962;-82
2022/08/04 00:23:43;;;;;;;4.60;2.10;;;;;;;22.64;67.82;100672.95;106796;1282;72495;-82
2022/08/04 00:26:32;;;;;;;4.60;2.40;;;;;;;22.60;68.20;100667.99;107026;1282;76277;-82
2022/08/04 00:28:59;;;;;;;6.00;2.10;;;;;;;22.57;68.10;100666.06;107156;1282;63459;-82
2022/08/04 00:31:27;;;;;;;5.00;2.10;;;;;;;22.52;68.39;100667.05;107195;1282;62579;-82
2022/08/04 00:34:14;;;;;;;5.40;2.30;;;;;;;22.46;69.29;100675.73;106939;1284;76179;-81
2022/08/04 00:36:43;;;;;;;4.50;2.20;;;;;;;22.26;70.93;100683.73;106712;1282;72815;-82
2022/08/04 00:39:15;;;;;;;4.20;2.10;;;;;;;22.03;70.56;100684.63;107405;1281;72932;-82
2022/08/04 00:42:03;;;;;;;5.50;2.10;;;;;;;21.88;70.96;100681.85;107294;1282;62097;-82
2022/08/04 00:44:42;;;;;;;5.50;2.50;;;;;;;21.79;71.08;100682.48;106916;1281;62630;-82
2022/08/04 00:47:47;;;;;;;6.30;2.30;;;;;;;21.77;71.33;100685.60;107206;1282;75031;-81
2022/08/04 00:50:29;;;;;;;3.90;2.40;;;;;;;21.73;71.44;100680.84;106862;1283;70660;-82
2022/08/04 00:53:06;;;;;;;4.50;2.20;;;;;;;21.70;71.68;100679.13;107328;1282;71606;-82
2022/08/04 00:55:46;;;;;;;7.20;2.70;;;;;;;21.67;71.80;100675.59;106967;1284;63001;-82
2022/08/04 00:58:40;;;;;;;5.10;2.50;;;;;;;21.64;72.08;100677.59;106998;1284;62314;-82
2022/08/04 01:01:18;;;;;;;5.00;2.70;;;;;;;21.63;72.30;100675.02;107282;1283;75042;-82
2022/08/04 01:04:06;;;;;;;7.20;2.70;;;;;;;21.61;72.60;100667.33;106693;1281;72825;-82
2022/08/04 01:06:41;;;;;;;8.00;2.50;;;;;;;21.60;72.48;100662.80;107068;1284;73186;-81
2022/08/04 01:09:20;;;;;;;4.90;2.20;;;;;;;21.61;72.52;100662.32;106828;1284;62613;-82
2022/08/04 01:12:44;;;;;;;4.60;2.50;;;;;;;21.61;72.57;100661.83;107172;1284;61374;-82
2022/08/04 01:15:38;;;;;;;5.70;2.50;;;;;;;21.61;72.84;100661.12;106153;1290;76108;-82
2022/08/04 01:18:34;;;;;;;6.50;3.20;;;;;;;21.59;73.01;100658.83;105942;1289;74197;-82
2022/08/04 01:21:28;;;;;;;6.00;2.70;;;;;;;21.57;72.98;100660.00;107242;1283;72214;-82
2022/08/04 01:24:18;;;;;;;6.10;2.60;;;;;;;21.56;73.20;100652.01;107047;1283;63388;-82
2022/08/04 01:27:10;;;;;;;5.60;3.00;;;;;;;21.55;73.25;100657.33;106897;1284;61421;-82
2022/08/04 01:29:59;;;;;;;5.50;2.60;;;;;;;21.52;73.44;100656.80;107064;1284;76120;-82
2022/08/04 01:33:02;;;;;;;5.20;2.40;;;;;;;21.49;73.55;100659.35;107096;1284;74160;-82
2022/08/04 01:35:45;;;;;;;5.80;2.10;;;;;;;21.40;73.65;100658.45;107034;1284;74373;-81
2022/08/04 01:38:32;;;;;;;6.20;2.70;;;;;;;21.27;73.69;100663.91;106959;1284;63336;-82
2022/08/04 01:41:06;;;;;;;5.20;2.60;;;;;;;21.13;73.72;100665.05;107163;1284;62750;-82
2022/08/04 01:43:34;;;;;;;5.60;2.40;;;;;;;21.03;74.03;100664.67;106884;1283;74701;-82
2022/08/04 01:46:05;;;;;;;4.90;2.80;;;;;;;20.97;74.25;100663.55;107010;1284;72429;-82
2022/08/04 01:48:34;;;;;;;4.80;2.50;;;;;;;20.93;74.54;100665.48;106772;1284;72773;-82
2022/08/04 01:51:09;;;;;;;8.10;2.70;;;;;;;20.89;74.84;100663.41;106981;1282;62299;-82
2022/08/04 01:53:41;;;;;;;7.50;2.90;;;;;;;20.84;75.03;100662.73;107189;1283;61061;-82
2022/08/04 01:56:10;;;;;;;5.90;2.70;;;;;;;20.80;75.56;100661.87;107178;1283;76471;-81
2022/08/04 01:58:38;;;;;;;6.70;2.90;;;;;;;20.79;75.81;100663.58;107186;1281;72621;-82
2022/08/04 02:01:11;;;;;;;6.50;3.10;;;;;;;20.76;76.01;100659.92;106977;1282;73224;-82
2022/08/04 02:03:44;;;;;;;7.90;3.00;;;;;;;20.75;76.19;100658.28;107064;1283;63113;-82
2022/08/04 02:07:02;;;;;;;6.60;2.90;;;;;;;20.73;76.56;100654.64;107305;1282;62822;-81
2022/08/04 02:09:42;;;;;;;5.80;3.10;;;;;;;20.73;76.70;100653.71;107038;1281;75009;-81
2022/08/04 02:12:39;;;;;;;5.70;3.40;;;;;;;20.71;77.10;100648.72;107327;1281;71516;-81
2022/08/04 02:15:19;;;;;;;6.80;3.30;;;;;;;20.70;77.33;100644.73;107076;1281;74215;-81
2022/08/04 02:18:03;;;;;;;6.10;3.10;;;;;;;20.69;77.45;100643.58;107320;1282;61969;-81
2022/08/04 02:20:37;;;;;;;5.50;3.20;;;;;;;20.69;77.54;100645.24;106853;1282;60349;-82
2022/08/04 02:23:07;;;;;;;7.20;3.20;;;;;;;20.69;77.78;100644.91;107201;1282;75949;-82
2022/08/04 02:25:39;;;;;;;6.40;3.20;;;;;;;20.70;77.84;100644.82;107165;1282;72660;-82
2022/08/04 02:28:24;;;;;;;7.00;3.20;;;;;;;20.69;77.88;100638.65;107069;1282;72964;-82
2022/08/04 02:31:30;;;;;;;6.90;3.50;;;;;;;20.67;77.90;100634.21;107131;1283;63554;-82
2022/08/04 02:34:21;;;;;;;5.40;3.00;;;;;;;20.67;78.01;100630.96;106666;1284;60703;-82
2022/08/04 02:36:51;;;;;;;6.80;3.20;;;;;;;20.66;78.09;100629.02;106914;1281;74958;-81
2022/08/04 02:39:21;;;;;;;5.80;2.90;;;;;;;20.65;78.20;100631.16;107306;1282;72257;-82
2022/08/04 02:41:49;;;;;;;7.00;3.00;;;;;;;20.62;78.51;100628.08;106960;1281;72184;-82
2022/08/04 02:44:24;;;;;;;4.70;2.80;;;;;;;20.58;78.69;100627.66;107024;1282;61963;-82
2022/08/04 02:46:52;;;;;;;5.10;2.80;;;;;;;20.53;78.85;100629.84;107253;1281;61453;-81
2022/08/04 02:49:20;;;;;;;9.00;3.10;;;;;;;20.50;79.01;100629.66;107296;1282;74920;-82
2022/08/04 02:51:55;;;;;;;6.60;3.40;;;;;;;20.45;79.28;100629.80;106949;1282;71395;-81
2022/08/04 02:54:26;;;;;;;7.20;3.30;;;;;;;20.40;79.66;100625.94;107022;1284;71995;-82
2022/08/04 02:57:01;;;;;;;7.00;3.40;;;;;;;20.35;79.90;100625.59;107157;1282;62666;-81
2022/08/04 02:59:58;;;;;;;5.80;3.30;;;;;;;20.31;80.22;100624.76;107302;1282;61644;-81
2022/08/04 03:02:51;;;;;;;7.80;3.40;;;;;;;20.27;80.30;100625.92;106958;1282;76242;-82
2022/08/04 03:05:24;;;;;;;7.40;3.20;;;;;;;20.27;80.52;100628.55;107150;1282;71500;-81
2022/08/04 03:08:20;;;;;;;6.80;3.20;;;;;;;20.27;80.52;100631.45;106952;1282;72544;-81
2022/08/04 03:11:16;;;;;;;7.80;3.30;;;;;;;20.25;80.61;100629.23;106790;1281;62289;-82
2022/08/04 03:14:14;;;;;;;6.90;3.40;;;;;;;20.23;80.63;100628.23;106963;1282;60756;-82
2022/08/04 03:17:21;;;;;;;6.30;3.20;;;;;;;20.22;80.74;100622.16;107197;1281;75223;-82
2022/08/04 03:19:51;;;;;;;6.90;3.70;;;;;;;20.21;80.83;100621.34;107119;1282;72372;-82
2022/08/04 03:22:33;;;;;;;8.70;3.90;;;;;;;20.21;80.81;100626.12;107396;1282;74287;-82
2022/08/04 03:25:22;;;;;;;6.60;3.90;;;;;;;20.20;80.99;100626.75;107077;1284;64009;-81
2022/08/04 03:28:09;;;;;;;8.20;4.00;;;;;;;20.19;81.25;100621.77;107225;1281;61638;-82
2022/08/04 03:30:57;;;;;;;5.10;3.40;;;;;;;20.17;81.37;100625.41;107045;1281;74973;-82
2022/08/04 03:33:39;;;;;;;7.30;3.50;;;;;;;20.16;81.45;100621.20;107129;1282;72689;-82
2022/08/04 03:36:17;;;;;;;6.00;3.60;;;;;;;20.18;81.56;100620.52;107000;1280;72003;-82
2022/08/04 03:38:57;;;;;;;6.70;3.60;;;;;;;20.18;81.54;100620.14;106881;1282;62730;-83
2022/08/04 03:41:51;;;;;;;6.60;3.30;;;;;;;20.17;81.69;100620.61;106994;1282;61311;-82
2022/08/04 03:45:02;;;;;;;7.00;3.50;;;;;;;20.16;81.53;100618.11;107392;1281;74892;-83
2022/08/04 03:48:07;;;;;;;6.70;3.40;;;;;;;20.16;81.51;100622.20;107167;1283;71484;-81
2022/08/04 03:53:07;;;;;;;6.50;3.60;;;;;;;20.15;81.52;100623.05;107278;1282;74494;-81
2022/08/04 03:54:08;;;;;;;7.20;3.30;;;;;;;20.13;81.34;100621.35;107052;1282;65831;-82
2022/08/04 03:56:59;;;;;;;8.70;3.10;;;;;;;20.12;81.27;100621.38;107357;1280;61727;-81
2022/08/04 03:59:51;;;;;;;6.80;3.30;;;;;;;20.10;81.14;100619.56;107088;1281;75463;-81
2022/08/04 04:03:04;;;;;;;7.80;3.40;;;;;;;20.09;81.15;100622.61;106949;1282;73453;-81
2022/08/04 04:05:54;;;;;;;7.10;3.60;;;;;;;20.07;81.06;100620.41;106903;1282;73187;-81
2022/08/04 04:08:40;;;;;;;7.40;3.80;;;;;;;20.06;81.05;100620.50;107045;1281;61466;-81
2022/08/04 04:11:10;;;;;;;7.10;3.50;;;;;;;20.06;81.12;100618.19;106926;1283;61288;-81
2022/08/04 04:13:59;;;;;;;8.80;3.40;;;;;;;20.09;81.12;100619.27;106921;1282;76157;-81
2022/08/04 04:16:48;;;;;;;7.20;3.90;;;;;;;20.13;81.22;100622.15;107277;1282;70287;-81
2022/08/04 04:19:37;;;;;;;6.70;3.80;;;;;;;20.14;81.20;100623.46;107023;1280;74253;-81
2022/08/04 04:22:21;;;;;;;6.00;3.50;;;;;;;20.15;81.08;100622.84;106861;1282;62426;-81
2022/08/04 04:25:18;;;;;;;7.60;3.40;;;;;;;20.16;81.14;100625.88;107150;1281;61338;-81
2022/08/04 04:28:11;;;;;;;6.70;3.30;;;;;;;20.17;81.18;100627.19;107133;1281;75727;-81
2022/08/04 04:31:09;;;;;;;5.70;3.60;;;;;;;20.20;81.30;100626.21;107520;1282;72913;-81
2022/08/04 04:33:48;;;;;;;7.90;3.50;;;;;;;20.23;81.18;100627.35;107239;1280;72967;-81
2022/08/04 04:36:48;;;;;;;6.60;3.50;;;;;;;20.27;81.08;100624.40;107036;1283;63067;-81
2022/08/04 04:39:33;;;;;;;4.80;3.40;;;;;;;20.31;81.09;100616.51;107471;1281;60320;-81
2022/08/04 04:42:13;;;;;;;8.10;3.60;;;;;;;20.38;80.92;100617.86;107222;1282;76948;-82
2022/08/04 04:45:05;;;;;;;7.90;3.50;;;;;;;20.43;80.81;100616.92;107041;1284;72200;-81
2022/08/04 04:47:54;;;;;;;7.70;3.80;;;;;;;20.48;80.61;100617.07;107110;1281;74657;-81
2022/08/04 04:51:13;;;;;;;7.60;3.70;;;;;;;20.53;80.46;100620.88;107493;1282;63325;-82
2022/08/04 04:54:03;;;;;;;6.30;3.20;;;;;;;20.56;80.39;100618.56;107319;1282;59609;-82
2022/08/04 04:56:42;;;;;;;7.90;3.20;;;;;;;20.60;80.25;100619.09;107388;1282;75060;-81
2022/08/04 04:59:14;;;;;;;6.30;3.40;;;;;;;20.64;80.18;100618.52;107340;1281;70294;-81
2022/08/04 05:02:05;;;;;;;8.90;3.60;;;;;;;20.69;80.18;100616.23;107407;1281;74060;-82
2022/08/04 05:04:37;;;;;;;5.80;3.20;;;;;;;20.75;79.97;100618.11;107236;1283;62002;-81
2022/08/04 05:07:35;;;;;;;6.50;3.50;;;;;;;20.80;79.71;100621.31;107104;1284;61509;-83
2022/08/04 05:10:20;;;;;;;6.70;3.50;;;;;;;20.84;79.55;100620.41;107214;1282;75632;-81
2022/08/04 05:13:16;;;;;;;5.70;3.60;;;;;;;20.89;79.55;100620.70;107332;1281;71718;-82
2022/08/04 05:16:15;;;;;;;7.10;3.60;;;;;;;20.98;79.41;100614.48;107163;1282;74714;-82
2022/08/04 05:18:48;;;;;;;6.10;3.40;;;;;;;21.04;79.14;100614.52;107395;1282;62269;-82
2022/08/04 05:21:38;;;;;;;9.90;4.00;;;;;;;21.08;78.84;100617.83;107279;1281;60594;-82
2022/08/04 05:24:09;;;;;;;5.30;3.50;;;;;;;21.15;78.79;100613.50;107312;1280;74969;-82
2022/08/04 05:26:59;;;;;;;4.80;3.20;;;;;;;21.23;78.51;100615.56;107143;1282;72378;-83
2022/08/04 05:29:28;;;;;;;6.80;3.70;;;;;;;21.32;78.34;100615.46;107122;1281;73481;-82
2022/08/04 05:32:03;;;;;;;8.50;4.00;;;;;;;21.41;78.22;100615.48;107357;1282;62328;-82
2022/08/04 05:34:38;;;;;;;5.80;3.70;;;;;;;21.48;77.97;100613.25;107366;1284;60359;-81
2022/08/04 05:37:10;;;;;;;8.20;3.30;;;;;;;21.52;77.65;100612.16;107432;1282;75339;-82
2022/08/04 05:40:04;;;;;;;6.50;3.30;;;;;;;21.51;77.36;100611.52;107371;1281;72187;-82
2022/08/04 05:42:35;;;;;;;7.30;3.60;;;;;;;21.53;77.39;100605.59;106859;1283;74560;-82
2022/08/04 05:45:04;;;;;;;6.20;3.40;;;;;;;21.61;77.40;100609.15;106974;1282;61979;-81
2022/08/04 05:47:32;;;;;;;8.30;3.70;;;;;;;21.76;77.37;100606.80;107230;1282;60516;-81
2022/08/04 05:50:01;;;;;;;9.90;4.20;;;;;;;21.91;77.10;100607.84;106861;1283;75954;-82
2022/08/04 05:52:30;;;;;;;9.10;3.70;;;;;;;22.09;76.81;100598.84;107216;1282;71198;-81
2022/08/04 05:54:59;;;;;;;9.30;3.70;;;;;;;22.29;76.41;100602.64;107184;1282;74294;-81
2022/08/04 05:57:27;;;;;;;6.20;3.70;;;;;;;22.47;75.49;100598.61;106955;1281;63042;-81
2022/08/04 05:59:57;;;;;;;4.40;3.00;;;;;;;22.59;74.46;100593.15;107072;1282;60450;-81
2022/08/04 06:02:26;;;;;;;7.30;3.10;;;;;;;22.71;73.93;100597.02;107363;1281;75981;-81
2022/08/04 06:04:55;;;;;;;7.10;3.40;;;;;;;22.85;73.32;100591.67;107328;1282;70942;-82
2022/08/04 06:07:22;;;;;;;5.60;3.20;;;;;;;22.96;72.92;100589.59;107390;1281;72942;-81
2022/08/04 06:09:49;;;;;;;6.50;3.20;;;;;;;23.12;72.73;100591.02;107081;1280;63300;-81
2022/08/04 06:12:25;;;;;;;7.50;3.30;;;;;;;23.28;72.17;100591.98;107198;1282;60440;-81
2022/08/04 06:14:55;;;;;;;6.40;2.90;;;;;;;23.46;71.58;100589.80;107312;1281;75033;-81
2022/08/04 06:17:30;;;;;;;9.50;3.50;;;;;;;23.64;70.47;100585.61;107269;1282;71137;-82
2022/08/04 06:20:19;;;;;;;6.40;3.50;;;;;;;23.79;69.45;100584.70;107449;1281;75667;-81
2022/08/04 06:22:56;;;;;;;5.60;3.00;;;;;;;23.94;68.54;100586.66;107316;1282;62081;-81
2022/08/04 06:25:27;;;;;;;6.80;3.20;;;;;;;24.06;67.40;100584.63;107015;1282;61556;-82
2022/08/04 06:27:54;;;;;;;7.30;3.10;;;;;;;24.20;67.23;100585.58;106924;1282;75318;-81
2022/08/04 06:30:25;;;;;;;6.10;3.20;;;;;;;24.36;66.95;100587.39;107086;1282;71822;-82
2022/08/04 06:32:56;;;;;;;7.80;3.30;;;;;;;24.53;66.16;100587.92;106979;1284;72979;-81
2022/08/04 06:35:32;;;;;;;8.30;3.10;;;;;;;24.70;65.32;100586.55;106990;1281;63241;-81
2022/08/04 06:38:00;;;;;;;5.70;3.10;;;;;;;24.88;65.10;100585.84;106918;1282;61086;-81
2022/08/04 06:40:28;;;;;;;8.10;3.20;;;;;;;25.08;64.46;100580.05;107378;1282;76214;-81
2022/08/04 06:43:05;;;;;;;5.60;2.60;;;;;;;25.24;63.61;100574.17;107623;1282;71200;-81
2022/08/04 06:45:38;;;;;;;7.10;3.00;;;;;;;25.35;62.62;100575.77;107339;1284;73002;-81
2022/08/04 06:48:07;;;;;;;6.30;2.70;;;;;;;25.50;62.49;100573.98;107366;1282;62073;-82
2022/08/04 06:50:38;;;;;;;8.30;2.90;;;;;;;25.71;62.25;100572.60;107191;1283;60141;-82
2022/08/04 06:53:26;;;;;;;5.60;2.70;;;;;;;25.98;61.68;100574.82;107467;1281;77807;-81
2022/08/04 06:55:54;;;;;;;4.20;2.10;;;;;;;26.22;61.28;100573.79;107232;1281;71341;-80
2022/08/04 06:58:23;;;;;;;5.10;2.10;;;;;;;26.38;58.63;100572.64;107455;1280;74067;-81
2022/08/04 07:00:54;;;;;;;5.60;2.60;;;;;;;26.49;58.36;100572.50;107382;1281;59376;-81
2022/08/04 07:03:21;;;;;;;7.30;2.60;;;;;;;26.68;58.97;100568.17;107135;1284;61120;-82
2022/08/04 07:05:50;;;;;;;6.70;2.70;;;;;;;26.92;58.35;100564.20;107254;1282;75252;-81
2022/08/04 07:08:18;;;;;;;7.20;2.40;;;;;;;27.09;58.11;100561.24;107241;1281;71120;-82
2022/08/04 07:10:45;;;;;;;9.60;2.50;;;;;;;27.27;57.36;100559.27;107252;1282;73811;-81
2022/08/04 07:13:12;;;;;;;6.30;2.50;;;;;;;27.44;55.95;100558.53;107555;1281;61872;-81
2022/08/04 07:15:47;;;;;;;7.40;2.90;;;;;;;27.59;55.86;100558.28;107639;1280;60691;-81
2022/08/04 07:18:15;;;;;;;8.40;2.70;;;;;;;27.78;55.40;100556.08;107459;1281;75200;-81
2022/08/04 07:20:43;;;;;;;5.70;2.40;;;;;;;27.96;54.78;100553.94;107237;1281;71539;-81
2022/08/04 07:23:16;;;;;;;7.50;2.40;;;;;;;28.14;53.41;100552.96;107338;1282;72962;-82
2022/08/04 07:25:43;;;;;;;6.10;2.90;;;;;;;28.32;52.08;100552.25;107683;1282;60444;-82
2022/08/04 07:28:29;;;;;;;6.60;2.20;;;;;;;28.52;52.01;100552.91;106781;1283;59623;-82
2022/08/04 07:30:57;;;;;;;5.80;2.50;;;;;;;28.73;50.99;100548.45;107590;1282;74995;-81
2022/08/04 07:33:25;;;;;;;6.10;2.30;;;;;;;28.92;49.72;100549.00;107431;1284;71348;-82
2022/08/04 07:35:56;;;;;;;5.10;2.30;;;;;;;29.11;48.64;100546.62;107491;1281;74093;-81
2022/08/04 07:38:40;;;;;;;6.10;2.20;;;;;;;29.28;47.20;100542.36;107006;1284;61865;-82
2022/08/04 07:41:24;;;;;;;4.50;2.40;;;;;;;29.51;47.25;100538.29;107279;1282;62212;-82
2022/08/04 07:44:09;;;;;;;6.90;1.90;;;;;;;29.78;45.48;100538.86;107219;1281;75001;-82
2022/08/04 07:46:36;;;;;;;4.50;2.20;;;;;;;29.96;44.69;100539.21;107048;1282;71621;-81
2022/08/04 07:49:04;;;;;;;6.40;2.20;;;;;;;30.10;43.13;100538.02;107039;1280;73212;-81
2022/08/04 07:51:34;;;;;;;4.50;1.90;;;;;;;30.27;43.53;100540.20;106983;1284;60224;-81
2022/08/04 07:54:02;;;;;;;5.00;1.80;;;;;;;30.48;44.01;100539.84;107463;1281;59664;-82
2022/08/04 07:56:30;;;;;;;3.30;2.00;;;;;;;30.64;41.98;100538.67;107265;1284;76098;-81
2022/08/04 07:58:58;;;;;;;5.80;1.90;;;;;;;30.71;41.40;100536.63;106858;1283;72427;-81
2022/08/04 08:01:26;;;;;;;3.90;1.60;;;;;;;30.81;40.75;100530.54;107397;1281;74089;-82
2022/08/04 08:03:55;;;;;;;5.90;1.90;;;;;;;30.90;37.91;100527.48;107383;1282;60425;-82
2022/08/04 08:06:23;;;;;;;2.70;1.40;;;;;;;31.03;36.95;100528.41;107284;1282;60381;-82
2022/08/04 08:09:05;;;;;;;3.10;1.40;;;;;;;31.15;36.87;100522.02;107100;1282;75348;-83
2022/08/04 08:11:45;;;;;;;3.30;1.40;;;;;;;31.28;37.53;100521.71;107395;1282;71446;-80
2022/08/04 08:14:34;;;;;;;3.20;1.60;;;;;;;31.38;35.64;100518.02;107017;1283;75415;-83
2022/08/04 08:17:02;;;;;;;2.60;1.70;;;;;;;31.48;35.40;100520.23;106944;1284;60457;-83
2022/08/04 08:19:33;;;;;;;3.50;1.40;;;;;;;31.61;35.29;100519.99;106820;1282;61767;-83
2022/08/04 08:22:01;;;;;;;3.80;1.30;;;;;;;31.69;34.56;100520.90;107077;1282;75018;-83
2022/08/04 08:24:30;;;;;;;3.10;1.40;;;;;;;31.80;34.34;100518.27;107267;1282;71595;-83
2022/08/04 08:26:58;;;;;;;2.70;1.50;;;;;;;31.95;34.03;100518.55;107072;1282;74111;-83
2022/08/04 08:29:26;;;;;;;2.60;1.50;;;;;;;32.13;34.28;100516.30;107305;1282;61724;-83
2022/08/04 08:31:53;;;;;;;4.70;1.60;;;;;;;32.30;33.59;100517.70;107121;1281;61607;-83
2022/08/04 08:34:25;;;;;;;3.90;1.40;;;;;;;32.46;33.14;100514.43;107062;1282;76525;-82
2022/08/04 08:37:08;;;;;;;3.40;1.30;;;;;;;32.54;32.99;100515.23;107180;1281;72839;-82
2022/08/04 08:39:40;;;;;;;3.50;1.50;;;;;;;32.54;32.73;100512.85;107267;1282;73010;-83
2022/08/04 08:42:46;;;;;;;5.50;1.40;;;;;;;32.61;32.90;100510.20;107163;1282;60550;-82
2022/08/04 08:45:42;;;;;;;2.90;1.70;;;;;;;32.81;33.25;100507.55;107204;1281;60427;-82
2022/08/04 08:48:33;;;;;;;3.60;1.40;;;;;;;33.01;33.05;100505.81;107488;1280;78665;-83
2022/08/04 08:51:30;;;;;;;3.30;1.20;;;;;;;33.15;32.76;100506.33;106889;1282;71596;-83
2022/08/04 08:54:28;;;;;;;3.40;1.60;;;;;;;33.15;32.03;100503.50;107150;1282;73034;-82
2022/08/04 08:57:17;;;;;;;3.70;1.40;;;;;;;33.24;32.49;100500.50;106788;1284;60125;-82
2022/08/04 09:00:00;;;;;;;3.60;1.50;;;;;;;33.47;31.60;100497.66;106846;1283;61287;-83
2022/08/04 09:02:45;;;;;;;3.40;1.50;;;;;;;33.72;31.95;100494.31;106693;1283;76126;-83
2022/08/04 09:05:36;;;;;;;2.40;1.40;;;;;;;33.93;31.33;100496.52;106980;1284;71532;-82
2022/08/04 09:08:15;;;;;;;4.80;1.40;;;;;;;34.04;31.27;100498.39;106867;1282;74218;-83
2022/08/04 09:11:07;;;;;;;2.40;1.50;;;;;;;34.14;30.14;100496.08;107191;1283;60698;-81
2022/08/04 09:13:46;;;;;;;3.20;1.50;;;;;;;34.24;29.08;100494.62;106818;1283;61870;-81
2022/08/04 09:16:36;;;;;;;3.90;1.30;;;;;;;34.35;29.00;100494.30;106743;1285;75017;-81
2022/08/04 09:19:16;;;;;;;5.00;1.40;;;;;;;34.45;28.64;100490.14;107136;1283;72241;-81
2022/08/04 09:22:28;;;;;;;2.30;1.20;;;;;;;34.54;28.62;100484.86;106925;1283;75570;-81
2022/08/04 09:25:06;;;;;;;4.80;1.30;;;;;;;34.66;27.86;100490.47;106670;1284;61204;-80
2022/08/04 09:27:42;;;;;;;3.80;1.40;;;;;;;34.72;27.39;100487.14;106853;1284;60646;-81
2022/08/04 09:30:12;;;;;;;5.10;1.50;;;;;;;34.82;27.78;100484.30;107000;1283;75956;-81
2022/08/04 09:33:05;;;;;;;3.80;1.30;;;;;;;34.90;27.01;100479.15;106831;1284;72073;-81
2022/08/04 09:35:56;;;;;;;3.00;1.40;;;;;;;34.96;26.91;100478.77;106379;1283;74106;-81
2022/08/04 09:38:47;;;;;;;2.80;1.30;;;;;;;35.09;26.63;100477.29;106950;1284;60507;-81
2022/08/04 09:41:33;;;;;;;2.50;1.30;;;;;;;35.14;26.03;100473.59;106685;1284;62231;-81
2022/08/04 09:44:52;;;;;;;2.80;1.30;;;;;;;35.28;26.16;100473.46;106746;1284;74737;-81
2022/08/04 09:47:50;;;;;;;2.10;1.20;;;;;;;35.39;25.97;100473.25;106899;1283;72982;-81
2022/08/04 09:50:33;;;;;;;2.40;1.30;;;;;;;35.50;25.51;100466.34;106801;1284;72746;-80
2022/08/04 09:53:18;;;;;;;3.40;1.60;;;;;;;35.67;25.87;100464.45;106950;1284;61386;-81
2022/08/04 09:55:46;;;;;;;2.80;1.40;;;;;;;35.83;25.22;100466.27;107156;1282;61745;-81
2022/08/04 09:58:39;;;;;;;3.30;1.50;;;;;;;35.94;25.49;100463.79;107070;1281;74578;-80
2022/08/04 10:01:13;;;;;;;2.70;1.40;;;;;;;36.01;24.87;100461.70;107147;1283;72540;-80
2022/08/04 10:03:48;;;;;;;3.10;1.30;;;;;;;36.12;24.94;100460.21;107124;1281;72838;-81
2022/08/04 10:06:46;;;;;;;2.70;1.30;;;;;;;36.21;24.73;100459.41;107190;1282;62176;-78
2022/08/04 10:09:33;;;;;;;4.90;1.50;;;;;;;36.42;25.68;100458.83;106838;1282;61574;-81
2022/08/04 10:12:06;;;;;;;2.30;1.20;;;;;;;36.57;24.78;100448.87;107501;1282;75489;-80
2022/08/04 10:14:45;;;;;;;3.30;1.30;;;;;;;36.61;24.46;100452.30;107293;1281;71394;-80
2022/08/04 10:17:24;;;;;;;5.30;2.00;;;;;;;36.62;24.02;100452.00;107146;1282;73314;-81
2022/08/04 10:20:06;;;;;;;4.10;1.90;;;;;;;36.64;23.64;100455.45;107233;1284;60633;-81
2022/08/04 10:22:40;;;;;;;4.00;2.40;;;;;;;36.55;23.49;100452.30;107455;1281;61615;-81
2022/08/04 10:26:04;;;;;;;3.30;1.90;;;;;;;36.52;23.88;100448.45;107146;1282;73720;-81
2022/08/04 10:28:51;;;;;;;2.50;1.60;;;;;;;36.48;23.47;100445.02;107012;1282;70234;-81
2022/08/04 10:31:31;;;;;;;2.20;1.20;;;;;;;36.45;24.07;100442.58;107264;1282;72912;-81
2022/08/04 10:34:19;;;;;;;3.70;1.10;;;;;;;36.50;23.74;100440.42;106878;1283;60930;-80
2022/08/04 10:36:57;;;;;;;3.20;1.30;;;;;;;36.53;23.83;100436.88;107080;1282;61346;-80
2022/08/04 10:40:35;;;;;;;2.40;1.20;;;;;;;36.57;23.70;100436.71;107505;1281;75792;-81
2022/08/04 10:42:36;;;;;;;2.20;1.30;;;;;;;36.64;24.05;100436.67;107182;1282;72504;-80
2022/08/04 10:45:22;;;;;;;3.00;1.40;;;;;;;36.77;23.15;100437.46;107018;1282;72937;-80
2022/08/04 10:48:20;;;;;;;1.90;1.30;;;;;;;36.72;22.89;100439.31;107031;1283;60616;-80
2022/08/04 10:51:19;;;;;;;2.10;1.30;;;;;;;36.62;22.81;100435.19;106830;1284;60794;-81
2022/08/04 10:53:55;;;;;;;3.40;1.40;;;;;;;36.61;22.77;100431.23;106996;1282;76397;-82
2022/08/04 10:56:40;;;;;;;2.10;1.20;;;;;;;36.69;23.22;100428.42;107349;1282;70600;-81
2022/08/04 10:59:17;;;;;;;2.00;1.10;;;;;;;36.90;23.27;100417.85;106850;1284;72933;-80
2022/08/04 11:01:48;;;;;;;2.70;1.30;;;;;;;37.09;23.10;100422.93;105819;1284;1527813;-81
2022/08/04 11:04:51;;;;;;;1.90;1.10;;;;;;;37.25;22.78;100424.80;107148;1282;60866;-81
2022/08/04 11:07:19;;;;;;;3.00;1.20;;;;;;;37.25;22.34;100427.32;106939;1282;74802;-81
2022/08/04 11:09:47;;;;;;;2.00;1.00;;;;;;;37.25;21.98;100430.56;107115;1284;71415;-80
2022/08/04 11:12:18;;;;;;;2.20;1.10;;;;;;;37.32;22.03;100430.88;107352;1282;72951;-81
2022/08/04 11:14:52;;;;;;;1.60;1.00;;;;;;;37.41;22.17;100426.39;107226;1282;61322;-81
2022/08/04 11:17:27;;;;;;;3.00;1.20;;;;;;;37.45;22.29;100436.98;107455;1283;61137;-81
2022/08/04 11:20:19;;;;;;;2.50;1.20;;;;;;;37.48;22.69;100426.51;107577;1281;74285;-83
2022/08/04 11:23:17;;;;;;;2.90;1.30;;;;;;;37.51;22.70;100427.61;107983;1282;70411;-80
2022/08/04 11:26:12;;;;;;;2.50;1.30;;;;;;;37.54;22.79;100422.69;107800;1282;73123;-88
2022/08/04 11:29:08;;;;;;;2.60;1.30;;;;;;;37.77;22.57;100417.23;107963;1282;60660;-80
2022/08/04 11:31:40;;;;;;;2.80;1.30;;;;;;;37.99;22.80;100422.39;107818;1282;61153;-81
2022/08/04 11:34:26;;;;;;;3.30;1.20;;;;;;;38.15;22.45;100420.15;107845;1282;73584;-80
2022/08/04 11:37:13;;;;;;;5.50;1.40;;;;;;;38.24;22.43;100417.38;107684;1282;71290;-81
2022/08/04 11:39:50;;;;;;;3.70;1.40;;;;;;;38.30;22.37;100416.38;107218;1282;73036;-81
2022/08/04 11:42:27;;;;;;;3.00;1.30;;;;;;;38.39;22.46;100411.84;106808;1282;61681;-81
2022/08/04 11:45:05;;;;;;;3.50;1.30;;;;;;;38.38;22.06;100411.66;107430;1282;60519;-82
2022/08/04 11:47:37;;;;;;;2.20;1.30;;;;;;;38.12;22.41;100414.00;107115;1282;75484;-81
2022/08/04 11:50:37;;;;;;;1.90;1.20;;;;;;;37.97;22.84;100410.09;107007;1283;71983;-81
2022/08/04 11:53:05;;;;;;;3.20;1.20;;;;;;;38.00;22.93;100401.98;106922;1283;73058;-81
2022/08/04 11:55:36;;;;;;;4.10;1.30;;;;;;;37.91;22.60;100417.96;107130;1282;60392;-81
2022/08/04 11:58:23;;;;;;;4.00;1.50;;;;;;;37.80;22.94;100415.15;107176;1284;62173;-80
2022/08/04 12:00:57;;;;;;;2.80;1.40;;;;;;;37.79;23.05;100421.47;107075;1283;75927;-81
2022/08/04 12:03:46;;;;;;;2.10;1.30;;;;;;;37.80;22.87;100419.90;106901;1282;72454;-81
2022/08/04 12:06:48;;;;;;;3.20;1.60;;;;;;;38.12;22.71;100413.20;107271;1282;72406;-81
2022/08/04 12:09:54;;;;;;;3.30;1.30;;;;;;;38.46;22.18;100410.39;107251;1282;61595;-81
2022/08/04 12:12:36;;;;;;;3.00;1.30;;;;;;;38.78;22.39;100413.10;107100;1282;61047;-81
2022/08/04 12:15:38;;;;;;;2.30;1.40;;;;;;;38.95;21.87;100413.43;107168;1282;75052;-82
2022/08/04 12:18:32;;;;;;;2.00;1.30;;;;;;;39.07;21.83;100414.95;107106;1282;72697;-80
2022/08/04 12:21:21;;;;;;;3.90;1.30;;;;;;;39.31;21.26;100414.77;107135;1282;73992;-81